Time;durP1;ratioP1;P1;durP2;ratioP2;P2;SDS_P1;SDS_P2;PMS_P1;PMS_P2;Temp;Humidity;BMP_temperature;BMP_pressure;BME280_temperature;BME280_humidity;BME280_pressure;Samples;Min_cycle;Max_cycle;Signal;HPM_P1;HPM_P2
2023/06/21 04:06:07;;;;;;;7.67;5.73;;;20.50;99.90;;;;;;5190493;23;20604;-64
2023/06/21 04:08:33;;;;;;;6.27;5.17;;;20.50;99.90;;;;;;4994777;28;20952;-65
2023/06/21 04:10:59;;;;;;;8.93;5.23;;;20.50;99.90;;;;;;4995965;28;20255;-64
2023/06/21 04:13:24;;;;;;;4.60;4.20;;;20.40;99.90;;;;;;4995935;28;20700;-64
2023/06/21 04:15:50;;;;;;;4.93;4.43;;;20.30;99.90;;;;;;4995258;28;20418;-64
2023/06/21 04:18:16;;;;;;;5.00;4.40;;;20.20;99.90;;;;;;4996094;28;20167;-65
2023/06/21 04:20:41;;;;;;;6.23;4.33;;;20.20;99.90;;;;;;4996067;28;20572;-65
2023/06/21 04:23:07;;;;;;;6.87;4.57;;;20.20;99.90;;;;;;4995843;28;20175;-64
2023/06/21 04:25:32;;;;;;;4.13;3.83;;;20.20;99.90;;;;;;4995632;28;20226;-64
2023/06/21 04:27:58;;;;;;;3.83;3.50;;;20.20;99.90;;;;;;4996146;28;20177;-64
2023/06/21 04:30:24;;;;;;;3.67;3.37;;;20.20;99.90;;;;;;4995912;28;20673;-65
2023/06/21 04:32:49;;;;;;;5.10;4.43;;;20.30;99.90;;;;;;4994653;28;20171;-64
2023/06/21 04:35:18;;;;;;;4.37;3.83;;;20.30;99.90;;;;;;4994352;28;20653;-64
2023/06/21 04:37:45;;;;;;;3.97;3.57;;;20.30;99.90;;;;;;4995623;28;20172;-64
2023/06/21 04:40:16;;;;;;;4.47;4.07;;;20.40;99.90;;;;;;4995472;28;20801;-64
2023/06/21 04:42:45;;;;;;;4.53;4.00;;;20.50;99.90;;;;;;4995473;28;20418;-64
2023/06/21 04:45:14;;;;;;;3.30;3.10;;;20.50;99.90;;;;;;4995174;28;20434;-64
2023/06/21 04:47:41;;;;;;;3.43;3.13;;;20.50;99.90;;;;;;4995452;28;20417;-64
2023/06/21 04:50:09;;;;;;;4.47;3.67;;;20.60;99.90;;;;;;4995310;28;20497;-66
2023/06/21 04:52:37;;;;;;;4.00;3.70;;;20.60;99.90;;;;;;4995309;28;20416;-64
2023/06/21 04:55:05;;;;;;;4.00;3.70;;;20.70;99.90;;;;;;4994891;28;20509;-64
2023/06/21 04:57:31;;;;;;;4.93;3.57;;;20.70;99.90;;;;;;4995330;28;20943;-65
2023/06/21 04:59:56;;;;;;;6.50;3.87;;;20.80;99.90;;;;;;4995248;28;20511;-64
2023/06/21 05:02:22;;;;;;;4.13;3.73;;;20.90;99.90;;;;;;4995270;28;20172;-65
2023/06/21 05:04:47;;;;;;;4.53;4.17;;;21.00;99.90;;;;;;4994735;28;20187;-65
2023/06/21 05:07:13;;;;;;;4.00;3.70;;;21.00;99.90;;;;;;4994762;28;20184;-64
2023/06/21 05:09:39;;;;;;;3.30;3.10;;;21.10;99.90;;;;;;4995036;28;20263;-63
2023/06/21 05:12:08;;;;;;;3.93;3.17;;;21.20;99.90;;;;;;4993731;28;20262;-65
2023/06/21 05:14:34;;;;;;;4.03;3.23;;;21.30;99.90;;;;;;4994526;28;20187;-65
2023/06/21 05:16:59;;;;;;;4.00;3.73;;;21.40;99.90;;;;;;4989200;28;20432;-65
2023/06/21 05:19:25;;;;;;;3.63;3.33;;;21.40;99.90;;;;;;4975185;28;20177;-66
2023/06/21 05:21:50;;;;;;;3.37;3.07;;;21.50;99.90;;;;;;4975086;28;20248;-66
2023/06/21 05:24:16;;;;;;;3.87;3.07;;;21.50;99.90;;;;;;4974871;28;20508;-64
2023/06/21 05:26:44;;;;;;;4.37;3.70;;;21.70;99.90;;;;;;4974320;28;20572;-66
2023/06/21 05:29:11;;;;;;;3.47;3.27;;;21.70;99.90;;;;;;4975270;28;20165;-64
2023/06/21 05:31:37;;;;;;;5.10;4.50;;;21.70;99.90;;;;;;4975201;28;20828;-63
2023/06/21 05:34:02;;;;;;;4.20;3.87;;;21.60;99.90;;;;;;4974594;28;20411;-65
2023/06/21 05:36:28;;;;;;;2.70;2.50;;;21.60;99.90;;;;;;4974071;28;20426;-64
2023/06/21 05:38:53;;;;;;;3.23;2.93;;;21.60;99.90;;;;;;4974960;28;20178;-65
2023/06/21 05:41:19;;;;;;;3.90;3.60;;;21.60;99.90;;;;;;4973729;28;20243;-64
2023/06/21 05:43:45;;;;;;;5.10;4.60;;;21.70;99.90;;;;;;4974656;28;20223;-64
2023/06/21 05:46:10;;;;;;;4.30;3.90;;;21.70;99.90;;;;;;4974979;28;20192;-64
2023/06/21 05:48:36;;;;;;;4.17;3.87;;;21.70;99.90;;;;;;4974611;28;20176;-64
2023/06/21 05:51:02;;;;;;;3.53;3.23;;;21.80;99.90;;;;;;4974649;28;20247;-65
2023/06/21 05:53:27;;;;;;;3.73;3.40;;;21.90;99.90;;;;;;4974469;28;20490;-65
2023/06/21 05:55:54;;;;;;;3.60;3.30;;;22.10;99.90;;;;;;4973846;28;20200;-64
2023/06/21 05:58:20;;;;;;;3.10;2.90;;;22.30;99.90;;;;;;4974045;28;20178;-63
2023/06/21 06:00:46;;;;;;;3.00;2.80;;;22.40;99.90;;;;;;4969179;28;20916;-70
2023/06/21 06:03:12;;;;;;;3.23;2.93;;;22.50;99.90;;;;;;4971961;28;20402;-64
2023/06/21 06:05:37;;;;;;;2.93;2.73;;;22.70;99.90;;;;;;4971144;28;20681;-64
2023/06/21 06:08:03;;;;;;;3.33;3.03;;;22.90;99.90;;;;;;4974635;28;20245;-64
2023/06/21 06:10:29;;;;;;;3.83;3.37;;;23.00;99.90;;;;;;4973922;28;20203;-65
2023/06/21 06:12:54;;;;;;;4.03;3.63;;;23.10;99.90;;;;;;4973899;28;20172;-65
2023/06/21 06:15:20;;;;;;;3.00;2.80;;;23.10;99.90;;;;;;4974159;28;20199;-65
2023/06/21 06:17:46;;;;;;;2.80;2.60;;;23.20;99.90;;;;;;4974235;28;20250;-65
2023/06/21 06:20:12;;;;;;;3.33;3.13;;;23.40;99.90;;;;;;4967855;28;20180;-65
2023/06/21 06:22:39;;;;;;;3.80;3.50;;;23.50;99.90;;;;;;4970417;28;20784;-67
2023/06/21 06:25:06;;;;;;;3.40;3.10;;;23.70;99.90;;;;;;4989890;28;20501;-64
2023/06/21 06:27:31;;;;;;;3.47;3.17;;;23.80;99.90;;;;;;4992559;28;20406;-64
2023/06/21 06:29:57;;;;;;;3.30;3.00;;;24.00;99.90;;;;;;4992072;28;20975;-64
2023/06/21 06:32:23;;;;;;;3.67;2.93;;;24.00;99.90;;;;;;4992173;28;20243;-65
2023/06/21 06:34:49;;;;;;;9.93;3.13;;;24.10;99.90;;;;;;4992592;28;20192;-65
2023/06/21 06:37:14;;;;;;;3.17;2.97;;;24.20;99.90;;;;;;4994329;28;20569;-63
2023/06/21 06:39:40;;;;;;;4.03;3.07;;;24.30;99.90;;;;;;4997596;28;20418;-65
2023/06/21 06:42:06;;;;;;;2.60;2.43;;;24.50;99.90;;;;;;4997867;28;20175;-65
2023/06/21 06:44:32;;;;;;;3.90;3.27;;;24.60;99.90;;;;;;4997313;28;20199;-66
2023/06/21 06:46:57;;;;;;;3.40;3.10;;;24.60;99.90;;;;;;4997316;28;20849;-66
2023/06/21 06:49:23;;;;;;;3.57;3.33;;;24.50;99.90;;;;;;4997305;28;20172;-66
2023/06/21 06:51:49;;;;;;;4.37;2.87;;;24.60;99.90;;;;;;4996076;28;20179;-66
2023/06/21 06:54:14;;;;;;;3.27;3.07;;;24.80;99.90;;;;;;4997372;28;20664;-65
2023/06/21 06:56:40;;;;;;;3.40;3.10;;;25.10;99.90;;;;;;4997148;28;20225;-66
2023/06/21 06:59:05;;;;;;;4.60;4.20;;;25.20;99.90;;;;;;4997264;28;20597;-65
2023/06/21 07:01:31;;;;;;;4.10;3.27;;;25.10;99.90;;;;;;4995589;28;20703;-65
2023/06/21 07:03:57;;;;;;;3.87;2.90;;;25.10;99.90;;;;;;4996792;28;20183;-65
2023/06/21 07:06:23;;;;;;;2.63;2.43;;;25.20;99.90;;;;;;4996870;28;20534;-65
2023/06/21 07:08:49;;;;;;;3.40;3.10;;;25.20;99.90;;;;;;4997182;28;20179;-65
2023/06/21 07:11:15;;;;;;;3.20;3.00;;;25.20;99.90;;;;;;4987378;28;20463;-65
2023/06/21 07:13:42;;;;;;;3.43;3.13;;;25.40;99.90;;;;;;4976731;28;20259;-64
2023/06/21 07:16:08;;;;;;;5.73;5.20;;;25.50;99.90;;;;;;4976028;28;20203;-65
2023/06/21 07:18:33;;;;;;;7.80;4.20;;;25.70;99.90;;;;;;4976812;28;20512;-64
2023/06/21 07:20:59;;;;;;;5.80;4.97;;;26.00;99.90;;;;;;4977493;28;20190;-63
2023/06/21 07:23:27;;;;;;;5.40;3.93;;;26.40;99.90;;;;;;4977105;28;20261;-66
2023/06/21 07:25:53;;;;;;;4.33;3.80;;;26.80;99.90;;;;;;4977042;28;20221;-65
2023/06/21 07:28:18;;;;;;;3.60;3.30;;;27.10;99.90;;;;;;4977376;28;20474;-66
2023/06/21 07:30:44;;;;;;;4.33;4.03;;;27.50;99.90;;;;;;4977185;28;20204;-66
2023/06/21 07:33:09;;;;;;;3.70;3.33;;;27.90;99.90;;;;;;4977326;28;20169;-66
2023/06/21 07:35:35;;;;;;;4.20;3.80;;;28.30;99.90;;;;;;4975550;28;20260;-67
2023/06/21 07:38:03;;;;;;;4.00;3.53;;;28.70;99.60;;;;;;4977068;28;20263;-66
2023/06/21 07:40:29;;;;;;;3.53;3.23;;;29.40;99.00;;;;;;4977154;28;20172;-66
2023/06/21 07:42:54;;;;;;;4.13;3.73;;;30.00;97.80;;;;;;4975898;28;20412;-69
2023/06/21 07:45:20;;;;;;;4.60;4.10;;;30.30;97.50;;;;;;4976462;28;20749;-66
2023/06/21 07:47:45;;;;;;;3.90;3.60;;;30.50;95.60;;;;;;4977269;28;20176;-66
2023/06/21 07:50:11;;;;;;;5.00;4.20;;;30.50;95.30;;;;;;4974729;28;20654;-65
2023/06/21 07:52:37;;;;;;;5.10;4.60;;;30.50;95.70;;;;;;4976766;28;20260;-66
2023/06/21 07:55:05;;;;;;;4.53;4.13;;;30.70;95.20;;;;;;4976545;28;20191;-66
2023/06/21 07:57:31;;;;;;;4.07;3.77;;;30.90;95.30;;;;;;4976631;28;20638;-65
2023/06/21 08:00:02;;;;;;;4.70;4.30;;;31.20;94.90;;;;;;4976666;28;20446;-65
2023/06/21 08:02:27;;;;;;;3.90;3.60;;;31.10;94.10;;;;;;4976803;28;20172;-65
2023/06/21 08:04:53;;;;;;;5.37;3.90;;;30.90;94.20;;;;;;4976506;28;20939;-66
2023/06/21 08:07:18;;;;;;;4.53;4.00;;;30.70;93.90;;;;;;4976400;28;20638;-65
2023/06/21 08:09:44;;;;;;;5.97;4.10;;;30.40;94.10;;;;;;4976443;28;20208;-64
2023/06/21 08:12:10;;;;;;;4.87;4.40;;;30.10;94.00;;;;;;4976496;28;20539;-64
2023/06/21 08:14:35;;;;;;;4.80;4.30;;;29.80;94.80;;;;;;4973949;28;20202;-65
2023/06/21 08:17:02;;;;;;;5.90;4.50;;;29.60;94.90;;;;;;4971838;28;20188;-70
2023/06/21 08:19:28;;;;;;;3.93;3.60;;;29.60;95.50;;;;;;4976518;28;20176;-65
2023/06/21 08:21:54;;;;;;;3.87;3.57;;;29.50;95.90;;;;;;4976597;28;20447;-65
2023/06/21 08:24:19;;;;;;;3.70;3.23;;;29.60;96.50;;;;;;4976133;28;20482;-65
2023/06/21 08:26:45;;;;;;;4.50;4.10;;;29.70;95.50;;;;;;4991841;28;20183;-67
2023/06/21 08:29:10;;;;;;;3.60;3.30;;;29.40;95.30;;;;;;4971774;28;20203;-69
2023/06/21 08:31:36;;;;;;;5.83;5.33;;;29.00;95.90;;;;;;4995411;28;20223;-65
2023/06/21 08:34:02;;;;;;;3.37;3.07;;;28.60;97.00;;;;;;4993550;28;20234;-66
2023/06/21 08:36:27;;;;;;;4.90;4.03;;;28.20;97.40;;;;;;4986839;28;20180;-65
2023/06/21 08:38:53;;;;;;;4.10;3.80;;;27.80;98.30;;;;;;4976169;28;20179;-65
2023/06/21 08:41:18;;;;;;;5.10;3.10;;;27.50;98.40;;;;;;4986105;28;20651;-66
2023/06/21 08:43:44;;;;;;;3.37;2.90;;;27.20;99.30;;;;;;4989022;28;20274;-66
2023/06/21 08:46:10;;;;;;;2.20;2.10;;;27.00;99.80;;;;;;4975952;28;20202;-65
2023/06/21 08:48:37;;;;;;;2.70;2.50;;;26.60;99.90;;;;;;4974396;28;20182;-65
2023/06/21 08:51:05;;;;;;;5.10;2.30;;;26.30;99.90;;;;;;4975110;28;20455;-66
2023/06/21 08:53:34;;;;;;;3.33;3.13;;;26.10;99.90;;;;;;4986984;28;20474;-65
2023/06/21 08:56:03;;;;;;;2.50;2.27;;;25.90;99.90;;;;;;4990641;28;20519;-67
2023/06/21 08:58:35;;;;;;;3.20;2.60;;;25.80;99.90;;;;;;4974893;28;20486;-68
2023/06/21 09:01:03;;;;;;;2.73;2.53;;;25.60;99.90;;;;;;4975288;28;20387;-67
2023/06/21 09:03:39;;;;;;;3.50;2.03;;;25.50;99.90;;;;;;4993629;28;20501;-66
2023/06/21 09:06:15;;;;;;;2.43;2.33;;;25.40;99.90;;;;;;4994334;28;20549;-63
2023/06/21 09:08:41;;;;;;;2.33;2.13;;;25.30;99.90;;;;;;4995085;28;20819;-61
2023/06/21 09:11:09;;;;;;;2.23;2.00;;;25.10;99.90;;;;;;4994969;28;20490;-62
2023/06/21 09:13:37;;;;;;;1.70;1.60;;;25.00;99.90;;;;;;4994617;28;20411;-62
2023/06/21 09:16:03;;;;;;;2.23;1.90;;;24.90;99.90;;;;;;4994490;28;20871;-62
2023/06/21 09:18:35;;;;;;;2.43;2.20;;;24.70;99.90;;;;;;4994923;28;20456;-61
2023/06/21 09:21:02;;;;;;;2.50;2.20;;;24.40;99.90;;;;;;4994852;28;20448;-62
2023/06/21 09:23:28;;;;;;;1.87;1.77;;;24.30;99.90;;;;;;4994423;28;20430;-61
2023/06/21 09:25:55;;;;;;;2.17;1.90;;;24.10;99.90;;;;;;4993379;28;20449;-62
2023/06/21 09:28:20;;;;;;;1.60;1.37;;;23.90;99.90;;;;;;4993533;28;20263;-61
2023/06/21 09:30:46;;;;;;;2.50;2.30;;;23.60;99.90;;;;;;4994291;28;20569;-61
2023/06/21 09:33:12;;;;;;;1.43;1.33;;;23.30;99.90;;;;;;4994759;28;20528;-62
2023/06/21 09:35:38;;;;;;;1.50;1.40;;;23.00;99.90;;;;;;4992927;28;20447;-61
2023/06/21 09:38:23;;;;;;;3.47;1.90;;;22.70;99.90;;;;;;4994563;28;20632;-59
2023/06/21 09:40:49;;;;;;;2.00;1.90;;;22.30;99.90;;;;;;4994660;28;20414;-61
2023/06/21 09:43:14;;;;;;;4.20;3.80;;;22.10;99.90;;;;;;4994478;28;20486;-61
2023/06/21 09:45:40;;;;;;;3.07;2.87;;;21.80;99.90;;;;;;4993991;28;20295;-62
2023/06/21 09:48:06;;;;;;;3.73;3.00;;;21.60;99.90;;;;;;4994394;28;20266;-61
2023/06/21 09:50:44;;;;;;;4.00;2.77;;;21.40;99.90;;;;;;4994271;28;20223;-58
2023/06/21 09:53:11;;;;;;;3.00;2.77;;;21.20;99.90;;;;;;4994749;28;20182;-64
2023/06/21 09:55:43;;;;;;;4.60;3.27;;;21.00;99.90;;;;;;4993920;28;20944;-60
2023/06/21 09:58:08;;;;;;;4.83;3.00;;;20.80;99.90;;;;;;4994275;28;20402;-60
2023/06/21 10:00:35;;;;;;;4.47;2.43;;;20.50;99.90;;;;;;4993881;28;20762;-60
2023/06/21 10:03:03;;;;;;;10.83;3.40;;;20.30;99.90;;;;;;4993861;28;20637;-62
2023/06/21 10:05:28;;;;;;;2.87;2.30;;;20.20;99.90;;;;;;4993664;28;20471;-58
2023/06/21 10:07:54;;;;;;;2.37;2.17;;;20.10;99.90;;;;;;4994139;28;20438;-62
2023/06/21 10:10:20;;;;;;;3.60;3.27;;;20.10;99.90;;;;;;4994378;28;20191;-61
2023/06/21 10:12:50;;;;;;;3.60;2.37;;;20.10;99.90;;;;;;4993653;28;20554;-61
2023/06/21 10:15:20;;;;;;;2.50;1.97;;;20.10;99.90;;;;;;4993303;28;20545;-58
2023/06/21 10:17:46;;;;;;;7.47;5.00;;;20.10;99.90;;;;;;4994122;28;20422;-59
2023/06/21 10:20:15;;;;;;;5.60;4.20;;;20.10;99.90;;;;;;4993959;28;20909;-61
2023/06/21 10:22:51;;;;;;;3.33;2.93;;;20.10;99.90;;;;;;4993982;28;20171;-61
2023/06/21 10:25:20;;;;;;;2.60;2.40;;;20.10;99.90;;;;;;4993302;28;20920;-59
2023/06/21 10:27:48;;;;;;;3.03;2.83;;;20.10;99.90;;;;;;4993804;28;20497;-61
2023/06/21 10:30:19;;;;;;;3.43;3.23;;;20.20;99.90;;;;;;4993101;28;20466;-61
2023/06/21 10:32:47;;;;;;;2.40;2.30;;;20.20;99.90;;;;;;4993911;28;20804;-60
2023/06/21 10:35:16;;;;;;;3.30;3.00;;;20.20;99.90;;;;;;4993467;28;20945;-61
2023/06/21 10:38:08;;;;;;;3.20;3.00;;;20.30;99.90;;;;;;4993966;28;20411;-62
2023/06/21 10:40:37;;;;;;;5.20;3.87;;;20.30;99.90;;;;;;4993206;28;20419;-60
2023/06/21 10:43:04;;;;;;;3.90;3.47;;;20.40;99.90;;;;;;4993622;28;20896;-62
2023/06/21 10:45:30;;;;;;;4.97;2.83;;;20.50;99.90;;;;;;4992407;28;20451;-59
2023/06/21 10:47:57;;;;;;;4.13;3.77;;;20.50;99.90;;;;;;4993742;28;20418;-61
2023/06/21 10:50:24;;;;;;;3.90;3.50;;;20.60;99.90;;;;;;4991110;28;20442;-60
2023/06/21 10:52:58;;;;;;;6.50;3.40;;;20.60;99.90;;;;;;4974432;28;20944;-61
2023/06/21 10:55:24;;;;;;;3.50;3.20;;;20.70;99.90;;;;;;4973855;28;20481;-61
2023/06/21 10:57:53;;;;;;;3.73;3.43;;;20.80;99.90;;;;;;4974230;28;20412;-62
2023/06/21 11:00:22;;;;;;;4.63;4.20;;;20.90;99.90;;;;;;4974143;28;20172;-61
2023/06/21 11:02:48;;;;;;;3.77;3.47;;;21.00;99.90;;;;;;4978396;28;20411;-62
2023/06/21 11:05:19;;;;;;;5.07;3.90;;;21.20;99.90;;;;;;4992518;28;20829;-63
2023/06/21 11:08:05;;;;;;;5.10;4.60;;;21.30;99.90;;;;;;4991980;28;20417;-62
2023/06/21 11:10:35;;;;;;;6.40;5.67;;;21.40;99.90;;;;;;4993354;28;20494;-60
2023/06/21 11:13:01;;;;;;;6.93;6.13;;;21.50;99.90;;;;;;4991544;28;20423;-63
2023/06/21 11:15:27;;;;;;;7.27;6.00;;;21.60;99.90;;;;;;4992811;28;20435;-62
2023/06/21 11:18:03;;;;;;;7.57;5.80;;;21.80;99.90;;;;;;4993650;28;20534;-62
2023/06/21 11:20:33;;;;;;;5.20;4.87;;;22.10;99.90;;;;;;4991809;28;20436;-60
2023/06/21 11:23:08;;;;;;;5.67;4.97;;;22.40;99.90;;;;;;4992838;28;20418;-63
2023/06/21 11:25:37;;;;;;;4.50;4.10;;;22.60;99.90;;;;;;4996336;28;20509;-65
2023/06/21 11:28:20;;;;;;;6.00;5.60;;;22.90;99.90;;;;;;4996380;28;20517;-68
2023/06/21 11:31:06;;;;;;;4.93;4.53;;;23.10;99.90;;;;;;4996860;28;20454;-66
2023/06/21 11:33:55;;;;;;;4.73;4.23;;;23.20;99.90;;;;;;4996629;28;20415;-65
2023/06/21 11:36:26;;;;;;;5.83;5.30;;;23.40;99.90;;;;;;4996225;28;20423;-67
2023/06/21 11:39:04;;;;;;;4.07;3.70;;;23.60;99.90;;;;;;4996205;28;20415;-67
2023/06/21 11:41:43;;;;;;;5.27;4.83;;;23.80;99.90;;;;;;4996520;28;20429;-68
2023/06/21 11:44:26;;;;;;;3.20;3.00;;;24.00;99.90;;;;;;4996064;28;20423;-66
2023/06/21 11:47:16;;;;;;;4.43;3.50;;;24.20;99.90;;;;;;4996611;28;20749;-67
2023/06/21 11:49:50;;;;;;;2.80;2.60;;;24.30;99.90;;;;;;4996624;28;20821;-68
2023/06/21 11:52:21;;;;;;;4.23;3.87;;;24.40;99.90;;;;;;4995401;28;20411;-67
2023/06/21 11:54:46;;;;;;;4.80;3.70;;;24.50;99.90;;;;;;4990330;28;20439;-67
2023/06/21 11:57:13;;;;;;;3.60;3.30;;;24.60;99.90;;;;;;4983113;28;20423;-66
2023/06/21 11:59:38;;;;;;;3.30;3.00;;;24.80;99.90;;;;;;4983651;28;20166;-68
2023/06/21 12:02:14;;;;;;;4.93;3.67;;;25.00;99.90;;;;;;4996196;28;20384;-65
2023/06/21 12:04:41;;;;;;;4.80;4.27;;;25.20;99.90;;;;;;4994796;28;20185;-69
2023/06/21 12:07:08;;;;;;;5.83;4.97;;;25.50;99.90;;;;;;4995828;28;20978;-65
2023/06/21 12:09:34;;;;;;;4.90;4.50;;;25.80;99.90;;;;;;4995529;28;20507;-66
2023/06/21 12:11:59;;;;;;;5.03;4.53;;;26.10;99.90;;;;;;4992026;28;20420;-69
2023/06/21 12:14:25;;;;;;;5.13;4.63;;;26.30;99.90;;;;;;4995519;28;20409;-66
2023/06/21 12:16:51;;;;;;;4.63;4.23;;;26.40;99.90;;;;;;4996211;28;20175;-65
2023/06/21 12:19:21;;;;;;;8.63;7.83;;;26.60;99.90;;;;;;4995972;28;20389;-66
2023/06/21 12:21:50;;;;;;;5.77;5.17;;;26.70;99.90;;;;;;4994483;28;20175;-67
2023/06/21 12:24:27;;;;;;;6.00;5.47;;;26.70;99.90;;;;;;4995193;28;20891;-67
2023/06/21 12:26:55;;;;;;;6.47;5.73;;;26.70;99.90;;;;;;4987071;28;20895;-66
2023/06/21 12:29:21;;;;;;;6.40;5.80;;;26.60;99.90;;;;;;4995041;28;20450;-69
2023/06/21 12:31:47;;;;;;;6.53;5.93;;;26.40;99.90;;;;;;4994298;28;20541;-67
2023/06/21 12:34:17;;;;;;;5.37;4.87;;;26.40;99.90;;;;;;4995080;28;20172;-67
2023/06/21 12:36:46;;;;;;;6.10;5.53;;;26.40;99.90;;;;;;4984191;28;20175;-71
2023/06/21 12:39:14;;;;;;;5.43;4.93;;;26.40;99.90;;;;;;4993595;28;20426;-62
2023/06/21 12:41:41;;;;;;;6.13;5.53;;;26.40;99.90;;;;;;4995383;28;20432;-60
2023/06/21 12:44:20;;;;;;;4.67;3.97;;;26.20;99.90;;;;;;4994868;28;20955;-60
2023/06/21 12:46:46;;;;;;;4.63;4.23;;;26.10;99.90;;;;;;4995067;28;20922;-60
2023/06/21 12:49:15;;;;;;;4.60;4.20;;;26.10;99.90;;;;;;4995246;28;20423;-61
2023/06/21 12:51:42;;;;;;;5.00;3.83;;;26.00;99.90;;;;;;4994659;28;20601;-60
2023/06/21 12:54:12;;;;;;;4.93;4.37;;;25.90;99.90;;;;;;4994073;28;20421;-59
2023/06/21 12:56:44;;;;;;;5.23;4.47;;;25.90;99.90;;;;;;4995214;28;20474;-61
2023/06/21 12:59:10;;;;;;;5.50;4.60;;;25.90;99.90;;;;;;4994963;28;20500;-60
2023/06/21 13:01:37;;;;;;;4.67;3.87;;;26.00;99.90;;;;;;4993919;28;20503;-61
2023/06/21 13:04:10;;;;;;;6.60;4.57;;;26.20;99.90;;;;;;4994203;28;20239;-60
2023/06/21 13:06:38;;;;;;;5.10;4.60;;;26.30;99.90;;;;;;4994850;28;20491;-60
2023/06/21 13:09:04;;;;;;;5.57;4.77;;;26.40;99.90;;;;;;4995155;28;20774;-60
2023/06/21 13:11:30;;;;;;;3.63;3.33;;;26.50;99.90;;;;;;4993741;28;20458;-61
2023/06/21 13:13:56;;;;;;;6.73;4.50;;;26.40;99.90;;;;;;4994173;28;20398;-61
2023/06/21 13:16:22;;;;;;;4.03;3.60;;;26.40;99.90;;;;;;4994337;28;20412;-61
2023/06/21 13:18:49;;;;;;;5.53;4.13;;;26.50;99.90;;;;;;4994175;28;20901;-60
2023/06/21 13:21:16;;;;;;;3.83;3.43;;;26.50;99.90;;;;;;4994748;28;20410;-61
2023/06/21 13:23:43;;;;;;;5.00;4.20;;;26.40;99.90;;;;;;4994246;28;20866;-62
2023/06/21 13:26:09;;;;;;;5.77;4.60;;;26.50;99.90;;;;;;4993188;28;20505;-62
2023/06/21 13:28:34;;;;;;;4.50;3.80;;;26.60;99.90;;;;;;4994048;28;20834;-60
2023/06/21 13:31:00;;;;;;;4.10;3.70;;;26.60;99.90;;;;;;4993422;28;20239;-60
2023/06/21 13:33:26;;;;;;;3.37;2.93;;;26.60;99.90;;;;;;4994057;28;20212;-60
2023/06/21 13:35:52;;;;;;;4.27;3.30;;;26.50;99.90;;;;;;4994474;28;20471;-60
2023/06/21 13:38:18;;;;;;;2.63;2.43;;;26.50;99.90;;;;;;4994563;28;20245;-61
2023/06/21 13:40:44;;;;;;;3.70;3.40;;;26.60;99.90;;;;;;4994012;28;20414;-63
2023/06/21 13:43:10;;;;;;;3.90;2.87;;;26.60;99.90;;;;;;4993200;28;20444;-60
2023/06/21 13:45:36;;;;;;;4.23;3.83;;;26.70;99.90;;;;;;4993251;28;20841;-60
2023/06/21 13:48:03;;;;;;;4.63;3.03;;;26.70;99.90;;;;;;4993604;28;20465;-62
2023/06/21 13:50:28;;;;;;;3.07;2.87;;;26.70;99.90;;;;;;4992515;28;20675;-59
2023/06/21 13:52:54;;;;;;;4.00;3.50;;;26.70;99.90;;;;;;4992596;28;20416;-62
2023/06/21 13:55:20;;;;;;;3.40;3.10;;;26.70;99.90;;;;;;4993753;28;20574;-59
2023/06/21 13:57:48;;;;;;;3.50;3.17;;;26.60;99.90;;;;;;4993946;28;20186;-61
2023/06/21 14:00:17;;;;;;;3.60;3.30;;;26.60;99.90;;;;;;4993081;28;20229;-60
2023/06/21 14:02:44;;;;;;;3.87;3.57;;;26.50;99.90;;;;;;4994146;28;20414;-61
2023/06/21 14:05:12;;;;;;;3.07;2.80;;;26.50;99.90;;;;;;4992054;28;20440;-59
2023/06/21 14:07:39;;;;;;;2.97;2.77;;;26.60;99.90;;;;;;4985814;28;20446;-60
2023/06/21 14:10:06;;;;;;;3.80;3.50;;;26.70;99.90;;;;;;4993916;28;20455;-62
2023/06/21 14:12:32;;;;;;;3.40;3.10;;;26.70;99.90;;;;;;4993525;28;20725;-61
2023/06/21 14:14:58;;;;;;;3.20;2.90;;;26.80;99.90;;;;;;4991482;28;20455;-60
2023/06/21 14:17:23;;;;;;;4.23;3.83;;;26.90;99.90;;;;;;4993398;28;20399;-59
2023/06/21 14:19:49;;;;;;;4.00;2.80;;;27.00;99.90;;;;;;4991784;28;20180;-59
2023/06/21 14:22:16;;;;;;;3.00;2.77;;;27.10;99.90;;;;;;4993938;28;20205;-60
2023/06/21 14:24:42;;;;;;;3.07;2.87;;;27.00;99.90;;;;;;4992415;28;20198;-59
2023/06/21 14:27:08;;;;;;;3.90;3.47;;;27.10;99.90;;;;;;4982182;28;20400;-61
2023/06/21 14:29:33;;;;;;;3.80;3.33;;;27.10;99.90;;;;;;4992815;28;20392;-62
2023/06/21 14:31:59;;;;;;;3.60;2.87;;;27.00;99.90;;;;;;4993423;28;20206;-60
2023/06/21 14:34:26;;;;;;;2.90;2.60;;;26.90;99.90;;;;;;4993239;28;20209;-60
2023/06/21 14:36:51;;;;;;;3.43;3.13;;;26.90;99.90;;;;;;4993592;28;20173;-60
2023/06/21 14:39:17;;;;;;;3.50;3.20;;;26.80;99.90;;;;;;4993621;28;20462;-59
2023/06/21 14:41:44;;;;;;;3.00;2.80;;;26.70;99.90;;;;;;4993570;28;20190;-60
2023/06/21 14:44:09;;;;;;;3.97;3.67;;;26.70;99.90;;;;;;4992075;28;20181;-61
2023/06/21 14:46:35;;;;;;;4.00;3.27;;;26.70;99.90;;;;;;4992816;28;20816;-60
2023/06/21 14:49:01;;;;;;;3.17;2.97;;;26.70;99.90;;;;;;4993016;28;20174;-60
2023/06/21 14:51:27;;;;;;;3.37;3.07;;;26.80;99.90;;;;;;4993283;28;20217;-61
2023/06/21 14:53:52;;;;;;;3.60;3.30;;;26.80;99.90;;;;;;4991353;28;20192;-60
2023/06/21 14:56:18;;;;;;;3.70;3.40;;;26.90;99.90;;;;;;4993266;28;20205;-60
2023/06/21 14:58:44;;;;;;;4.90;3.53;;;26.90;99.90;;;;;;4993217;28;20182;-61
2023/06/21 15:01:09;;;;;;;2.80;2.60;;;26.90;99.90;;;;;;4996834;28;20466;-61
2023/06/21 15:03:35;;;;;;;4.30;3.10;;;26.90;99.90;;;;;;4996857;28;20678;-61
2023/06/21 15:06:00;;;;;;;3.57;3.27;;;26.90;99.90;;;;;;4997376;28;20220;-61
2023/06/21 15:08:26;;;;;;;4.10;3.13;;;26.90;99.90;;;;;;4996747;28;20662;-60
2023/06/21 15:10:53;;;;;;;4.53;3.40;;;26.90;99.90;;;;;;4996362;28;20189;-60
2023/06/21 15:13:18;;;;;;;3.03;2.33;;;26.90;99.90;;;;;;4995553;28;20207;-59
2023/06/21 15:15:44;;;;;;;8.20;3.03;;;26.80;99.90;;;;;;4996331;28;20842;-59
2023/06/21 15:18:11;;;;;;;3.20;2.70;;;26.80;99.90;;;;;;4996180;28;20410;-61
2023/06/21 15:20:37;;;;;;;2.67;2.47;;;26.70;99.90;;;;;;4996594;28;20452;-61
2023/06/21 15:23:03;;;;;;;4.10;3.30;;;26.70;99.90;;;;;;4996324;28;20420;-61
2023/06/21 15:25:30;;;;;;;4.60;3.17;;;26.80;99.90;;;;;;4995658;28;20513;-61
2023/06/21 15:27:58;;;;;;;2.90;2.43;;;26.80;99.90;;;;;;4992805;28;20404;-60
2023/06/21 15:30:23;;;;;;;3.50;3.20;;;26.80;99.90;;;;;;4995192;28;20424;-60
2023/06/21 15:32:49;;;;;;;2.93;2.63;;;26.80;99.90;;;;;;4994866;28;20438;-61
2023/06/21 15:35:14;;;;;;;3.87;3.37;;;26.80;99.90;;;;;;4995974;28;20278;-59
2023/06/21 15:37:40;;;;;;;2.70;2.50;;;26.80;99.90;;;;;;4996223;28;20528;-61
2023/06/21 15:40:08;;;;;;;3.03;2.83;;;26.70;99.90;;;;;;4995384;28;20176;-61
2023/06/21 15:42:34;;;;;;;3.40;3.10;;;26.60;99.90;;;;;;4995904;28;20211;-61
2023/06/21 15:45:00;;;;;;;2.83;2.53;;;26.50;99.90;;;;;;4994847;28;20443;-60
2023/06/21 15:47:26;;;;;;;2.70;2.50;;;26.50;99.90;;;;;;4996750;28;20754;-60
2023/06/21 15:49:51;;;;;;;2.90;2.70;;;26.40;99.90;;;;;;4995003;28;20187;-59
2023/06/21 15:52:17;;;;;;;2.33;2.23;;;26.40;99.90;;;;;;4996190;28;20183;-61
2023/06/21 15:54:44;;;;;;;3.73;3.43;;;26.40;99.90;;;;;;4995442;28;20198;-61
2023/06/21 15:57:09;;;;;;;3.23;3.03;;;26.30;99.90;;;;;;4996813;28;20657;-59
2023/06/21 15:59:36;;;;;;;4.80;3.13;;;26.30;99.90;;;;;;4995180;28;20427;-61
2023/06/21 16:02:02;;;;;;;3.67;2.87;;;26.30;99.90;;;;;;4995485;28;20200;-58
2023/06/21 16:04:29;;;;;;;2.90;2.70;;;26.40;99.90;;;;;;4995562;28;20448;-60
2023/06/21 16:06:54;;;;;;;3.67;2.70;;;26.40;99.90;;;;;;4995968;28;20417;-60
2023/06/21 16:09:21;;;;;;;3.30;2.60;;;26.50;99.90;;;;;;4995240;28;20937;-61
2023/06/21 16:11:46;;;;;;;3.50;2.60;;;26.50;99.90;;;;;;4993792;28;20209;-60
2023/06/21 16:14:12;;;;;;;3.50;3.20;;;26.50;99.90;;;;;;4995327;28;20427;-59
2023/06/21 16:16:38;;;;;;;3.90;3.30;;;26.60;99.90;;;;;;4995962;28;20526;-61
2023/06/21 16:19:03;;;;;;;3.20;2.90;;;26.60;99.90;;;;;;4995952;28;20171;-62
2023/06/21 16:21:29;;;;;;;3.50;3.20;;;26.70;99.90;;;;;;4995596;28;20635;-60
2023/06/21 16:23:55;;;;;;;3.67;2.70;;;26.80;99.90;;;;;;4994902;28;20177;-60
2023/06/21 16:26:22;;;;;;;2.57;2.40;;;26.80;99.90;;;;;;4984020;28;20201;-60
2023/06/21 16:28:50;;;;;;;2.97;2.77;;;26.90;99.90;;;;;;4976386;28;20204;-60
2023/06/21 16:31:15;;;;;;;3.07;2.87;;;26.90;99.90;;;;;;4994866;28;20433;-61
2023/06/21 16:33:41;;;;;;;3.27;2.93;;;27.00;99.90;;;;;;4994876;28;20390;-60
2023/06/21 16:36:07;;;;;;;2.87;2.67;;;26.90;99.90;;;;;;4995726;28;20205;-61
2023/06/21 16:38:33;;;;;;;2.33;2.20;;;26.80;99.90;;;;;;4994264;28;20168;-61
2023/06/21 16:40:59;;;;;;;3.20;2.90;;;26.80;99.90;;;;;;4995544;28;20263;-62
2023/06/21 16:43:25;;;;;;;2.73;2.53;;;26.70;99.90;;;;;;4994926;28;21028;-60
2023/06/21 16:45:50;;;;;;;2.20;2.10;;;26.70;99.90;;;;;;4994991;28;20417;-60
2023/06/21 16:48:17;;;;;;;2.73;2.53;;;26.60;99.90;;;;;;4995202;28;20792;-60
2023/06/21 16:50:44;;;;;;;3.40;2.40;;;26.60;99.90;;;;;;4995061;28;20203;-62
2023/06/21 16:53:10;;;;;;;2.87;2.23;;;26.50;99.90;;;;;;4994198;28;20390;-58